| |
Missouri Department of Transportation

Social Media Facebook Twitter Flickr Instagram YouTube RSS

Current AWOS Information

 
AWOS Home - General Info for all Airports
Current AWOS for all Airports - Current METAR for all Airports
Glossary - Disclaimer - Other Links


LEBANON--FLOYD W JONES LEBANON--KLBO
 
Recent AWOS History
 
08/30/15     08:22 PM CDT      01:22 GMT
Air Temperature 75°F (24°C ) 1st Cloud Layer Broken at 3,000 feet
Dew Point 70°F (21°C) 2nd Cloud Layer Overcast at 3,500 feet
Barometric Pressure 30.02 in Hg. 3rd Cloud Layer  
Wind Speed     Density Altitude 2600 feet
Peak Wind Gusts   Variable Wind Directions  
Wind Direction Quadrant(MM°) Variable Visibility  
Visibility 10 statute miles  

Thunderstorm and Precipitation Identification: 
Thunderstorm Remarks: 

Current METAR Record: METAR KLBO 300125Z AUTO 07003KT 10SM BKN028 OVC035 24/21 A3002 RMK AO2

 

 

 

About Us
How Do I...
Contact Us
Missouri Department of Transportation
Central Office
105 W. Capitol Avenue
Jefferson City, MO 65102
1-888-ASK-MODOT (275-6636)
1-866-831-6277 (Motor Carrier Services)
Driver's License Offices
horz_bar
| | |
Missouri State Government
© 2013 Missouri Department of Transportation. All Rights Reserved.   Privacy Policy.
 
 
 
 
RSS FeedYoutubeBlogFlickrTwitter Facebook